sensor_id;sensor_type;location;lat;lon;timestamp;pressure;altitude;pressure_sealevel;temperature;humidity
41312;BME280;27061;41.648;24.568;2022-10-16T00:01:48;86342.28;;;8.49;60.91
41312;BME280;27061;41.648;24.568;2022-10-16T00:04:15;86378.91;;;8.63;60.69
41312;BME280;27061;41.648;24.568;2022-10-16T00:06:42;86393.41;;;8.66;61.03
41312;BME280;27061;41.648;24.568;2022-10-16T00:09:10;86341.56;;;8.32;60.94
41312;BME280;27061;41.648;24.568;2022-10-16T00:11:38;86392.00;;;8.65;60.69
41312;BME280;27061;41.648;24.568;2022-10-16T00:14:09;86351.16;;;8.27;60.93
41312;BME280;27061;41.648;24.568;2022-10-16T00:16:37;86380.22;;;8.48;61.22
41312;BME280;27061;41.648;24.568;2022-10-16T00:19:04;86387.16;;;8.47;60.63
41312;BME280;27061;41.648;24.568;2022-10-16T00:21:32;86390.56;;;8.35;61.28
41312;BME280;27061;41.648;24.568;2022-10-16T00:24:03;86400.19;;;8.34;61.58
41312;BME280;27061;41.648;24.568;2022-10-16T00:26:33;86361.50;;;8.14;61.73
41312;BME280;27061;41.648;24.568;2022-10-16T00:29:00;86348.31;;;7.92;61.81
41312;BME280;27061;41.648;24.568;2022-10-16T00:31:28;86390.56;;;8.39;61.90
41312;BME280;27061;41.648;24.568;2022-10-16T00:33:56;86353.72;;;7.72;62.86
41312;BME280;27061;41.648;24.568;2022-10-16T00:36:25;86382.03;;;7.81;63.85
41312;BME280;27061;41.648;24.568;2022-10-16T00:38:54;86380.00;;;7.91;63.51
41312;BME280;27061;41.648;24.568;2022-10-16T00:41:24;86359.16;;;7.58;64.31
41312;BME280;27061;41.648;24.568;2022-10-16T00:43:57;86393.81;;;7.93;64.23
41312;BME280;27061;41.648;24.568;2022-10-16T00:46:40;86396.53;;;7.89;64.49
41312;BME280;27061;41.648;24.568;2022-10-16T00:51:40;86386.69;;;7.52;65.93
41312;BME280;27061;41.648;24.568;2022-10-16T00:54:18;86400.56;;;7.70;66.14
41312;BME280;27061;41.648;24.568;2022-10-16T00:56:47;86388.81;;;7.63;66.22
41312;BME280;27061;41.648;24.568;2022-10-16T00:59:22;86399.06;;;7.53;67.06
41312;BME280;27061;41.648;24.568;2022-10-16T01:01:52;86385.34;;;7.63;67.00
41312;BME280;27061;41.648;24.568;2022-10-16T01:04:20;86399.19;;;7.75;66.67
41312;BME280;27061;41.648;24.568;2022-10-16T01:09:54;86401.19;;;7.60;67.45
41312;BME280;27061;41.648;24.568;2022-10-16T01:13:00;86401.22;;;7.66;67.61
41312;BME280;27061;41.648;24.568;2022-10-16T01:21:03;86386.06;;;7.67;66.59
41312;BME280;27061;41.648;24.568;2022-10-16T01:23:36;86406.81;;;7.79;66.88
41312;BME280;27061;41.648;24.568;2022-10-16T01:29:04;86386.03;;;7.59;66.54
41312;BME280;27061;41.648;24.568;2022-10-16T01:31:39;86411.59;;;7.74;66.80
41312;BME280;27061;41.648;24.568;2022-10-16T01:34:15;86422.00;;;7.86;66.71
41312;BME280;27061;41.648;24.568;2022-10-16T01:36:48;86406.03;;;7.64;66.50
41312;BME280;27061;41.648;24.568;2022-10-16T01:39:20;86428.94;;;7.91;66.32
41312;BME280;27061;41.648;24.568;2022-10-16T01:42:13;86430.31;;;7.96;66.28
41312;BME280;27061;41.648;24.568;2022-10-16T01:44:42;86424.13;;;7.91;66.41
41312;BME280;27061;41.648;24.568;2022-10-16T01:47:11;86399.19;;;7.71;66.44
41312;BME280;27061;41.648;24.568;2022-10-16T01:49:40;86416.53;;;7.90;66.37
41312;BME280;27061;41.648;24.568;2022-10-16T01:52:16;86401.94;;;7.71;66.20
41312;BME280;27061;41.648;24.568;2022-10-16T01:54:46;86439.28;;;7.92;66.37
41312;BME280;27061;41.648;24.568;2022-10-16T01:57:15;86401.25;;;7.75;66.06
41312;BME280;27061;41.648;24.568;2022-10-16T01:59:49;86437.22;;;7.93;66.35
41312;BME280;27061;41.648;24.568;2022-10-16T02:02:19;86401.91;;;7.67;65.58
41312;BME280;27061;41.648;24.568;2022-10-16T02:04:51;86421.31;;;7.81;65.70
41312;BME280;27061;41.648;24.568;2022-10-16T02:07:20;86424.06;;;7.81;65.68
41312;BME280;27061;41.648;24.568;2022-10-16T02:09:47;86435.81;;;7.90;65.56
41312;BME280;27061;41.648;24.568;2022-10-16T02:12:35;86432.38;;;7.89;65.53
41312;BME280;27061;41.648;24.568;2022-10-16T02:15:03;86414.41;;;7.84;64.36
41312;BME280;27061;41.648;24.568;2022-10-16T02:17:30;86437.91;;;7.93;64.20
41312;BME280;27061;41.648;24.568;2022-10-16T02:19:58;86422.00;;;7.86;64.50
41312;BME280;27061;41.648;24.568;2022-10-16T02:22:38;86437.84;;;7.85;65.05
41312;BME280;27061;41.648;24.568;2022-10-16T02:25:35;86445.44;;;7.85;64.66
41312;BME280;27061;41.648;24.568;2022-10-16T02:30:43;86446.66;;;7.63;65.46
41312;BME280;27061;41.648;24.568;2022-10-16T02:33:12;86434.91;;;7.51;65.83
41312;BME280;27061;41.648;24.568;2022-10-16T02:35:41;86453.56;;;7.60;65.95
41312;BME280;27061;41.648;24.568;2022-10-16T02:38:09;86452.84;;;7.58;65.83
41312;BME280;27061;41.648;24.568;2022-10-16T02:40:38;86434.91;;;7.51;65.05
41312;BME280;27061;41.648;24.568;2022-10-16T02:43:06;86440.38;;;7.49;65.04
41312;BME280;27061;41.648;24.568;2022-10-16T02:45:33;86440.41;;;7.51;65.19
41312;BME280;27061;41.648;24.568;2022-10-16T02:48:00;86454.25;;;7.65;65.04
41312;BME280;27061;41.648;24.568;2022-10-16T02:50:27;86443.22;;;7.61;65.27
41312;BME280;27061;41.648;24.568;2022-10-16T02:52:54;86434.84;;;7.47;65.42
41312;BME280;27061;41.648;24.568;2022-10-16T02:55:21;86456.34;;;7.62;65.45
41312;BME280;27061;41.648;24.568;2022-10-16T02:57:48;86424.47;;;7.39;65.61
41312;BME280;27061;41.648;24.568;2022-10-16T03:00:16;86456.94;;;7.53;65.99
41312;BME280;27061;41.648;24.568;2022-10-16T03:02:44;86452.13;;;7.55;66.05
41312;BME280;27061;41.648;24.568;2022-10-16T03:05:11;86459.69;;;7.51;66.46
41312;BME280;27061;41.648;24.568;2022-10-16T03:07:39;86440.28;;;7.34;66.44
41312;BME280;27061;41.648;24.568;2022-10-16T03:10:06;86441.69;;;7.40;66.49
41312;BME280;27061;41.648;24.568;2022-10-16T03:12:33;86453.41;;;7.42;67.08
41312;BME280;27061;41.648;24.568;2022-10-16T03:15:01;86463.75;;;7.40;67.16
41312;BME280;27061;41.648;24.568;2022-10-16T03:17:27;86476.13;;;7.39;67.22
41312;BME280;27061;41.648;24.568;2022-10-16T03:19:55;86462.31;;;7.34;67.20
41312;BME280;27061;41.648;24.568;2022-10-16T03:22:22;86474.16;;;7.55;66.52
41312;BME280;27061;41.648;24.568;2022-10-16T03:24:49;86444.28;;;7.21;66.44
41312;BME280;27061;41.648;24.568;2022-10-16T03:27:16;86435.97;;;7.13;66.94
41312;BME280;27061;41.648;24.568;2022-10-16T03:29:43;86469.88;;;7.34;67.07
41312;BME280;27061;41.648;24.568;2022-10-16T03:32:10;86474.06;;;7.39;67.31
41312;BME280;27061;41.648;24.568;2022-10-16T03:34:37;86398.56;;;6.84;67.21
41312;BME280;27061;41.648;24.568;2022-10-16T03:37:04;86478.88;;;7.39;67.14
41312;BME280;27061;41.648;24.568;2022-10-16T03:39:31;86445.69;;;7.22;67.17
41312;BME280;27061;41.648;24.568;2022-10-16T03:41:58;86473.31;;;7.34;66.86
41312;BME280;27061;41.648;24.568;2022-10-16T03:44:25;86453.22;;;7.16;66.76
41312;BME280;27061;41.648;24.568;2022-10-16T03:46:52;86451.03;;;7.04;66.99
41312;BME280;27061;41.648;24.568;2022-10-16T03:49:19;86481.53;;;7.26;66.96
41312;BME280;27061;41.648;24.568;2022-10-16T03:51:46;86435.88;;;6.99;67.01
41312;BME280;27061;41.648;24.568;2022-10-16T03:54:13;86476.16;;;7.45;66.22
41312;BME280;27061;41.648;24.568;2022-10-16T03:56:40;86442.78;;;7.04;66.61
41312;BME280;27061;41.648;24.568;2022-10-16T03:59:07;86456.50;;;6.98;66.98
41312;BME280;27061;41.648;24.568;2022-10-16T04:01:34;86462.00;;;7.00;67.05
41312;BME280;27061;41.648;24.568;2022-10-16T04:04:01;86455.13;;;6.97;66.87
41312;BME280;27061;41.648;24.568;2022-10-16T04:06:28;86485.59;;;7.19;66.75
41312;BME280;27061;41.648;24.568;2022-10-16T04:08:55;86462.03;;;7.02;66.32
41312;BME280;27061;41.648;24.568;2022-10-16T04:11:23;86468.97;;;7.07;65.85
41312;BME280;27061;41.648;24.568;2022-10-16T04:13:50;86451.00;;;7.00;65.68
41312;BME280;27061;41.648;24.568;2022-10-16T04:16:17;86492.59;;;7.30;65.65
41312;BME280;27061;41.648;24.568;2022-10-16T04:18:44;86473.91;;;7.23;65.83
41312;BME280;27061;41.648;24.568;2022-10-16T04:21:11;86476.69;;;7.25;65.76
41312;BME280;27061;41.648;24.568;2022-10-16T04:23:38;86478.13;;;7.30;64.90
41312;BME280;27061;41.648;24.568;2022-10-16T04:26:05;86485.69;;;7.31;64.68
41312;BME280;27061;41.648;24.568;2022-10-16T04:28:32;86480.78;;;7.18;65.20
41312;BME280;27061;41.648;24.568;2022-10-16T04:30:59;86434.38;;;6.86;65.07
41312;BME280;27061;41.648;24.568;2022-10-16T04:33:26;86462.19;;;7.18;64.35
41312;BME280;27061;41.648;24.568;2022-10-16T04:35:58;86457.28;;;7.09;64.08
41312;BME280;27061;41.648;24.568;2022-10-16T04:38:25;86480.09;;;7.19;64.36
41312;BME280;27061;41.648;24.568;2022-10-16T04:40:52;86468.28;;;7.11;64.36
41312;BME280;27061;41.648;24.568;2022-10-16T04:43:20;86484.25;;;7.22;64.08
41312;BME280;27061;41.648;24.568;2022-10-16T04:45:47;86462.78;;;7.09;63.47
41312;BME280;27061;41.648;24.568;2022-10-16T04:48:18;86449.50;;;6.85;64.18
41312;BME280;27061;41.648;24.568;2022-10-16T04:50:45;86467.50;;;6.98;64.30
41312;BME280;27061;41.648;24.568;2022-10-16T04:53:17;86454.25;;;6.80;64.65
41312;BME280;27061;41.648;24.568;2022-10-16T04:55:44;86472.97;;;6.94;64.52
41312;BME280;27061;41.648;24.568;2022-10-16T04:58:11;86493.69;;;7.03;64.54
41312;BME280;27061;41.648;24.568;2022-10-16T05:00:38;86469.41;;;6.81;64.50
41312;BME280;27061;41.648;24.568;2022-10-16T05:03:05;86478.53;;;6.98;63.91
41312;BME280;27061;41.648;24.568;2022-10-16T05:05:36;86472.31;;;6.97;63.79
41312;BME280;27061;41.648;24.568;2022-10-16T05:08:03;86499.31;;;7.13;63.86
41312;BME280;27061;41.648;24.568;2022-10-16T05:10:30;86454.28;;;6.82;64.01
41312;BME280;27061;41.648;24.568;2022-10-16T05:12:57;86488.88;;;7.02;64.34
41312;BME280;27061;41.648;24.568;2022-10-16T05:15:24;86452.06;;;6.67;64.42
41312;BME280;27061;41.648;24.568;2022-10-16T05:17:53;86472.94;;;6.88;64.35
41312;BME280;27061;41.648;24.568;2022-10-16T05:20:21;86472.09;;;6.73;64.70
41312;BME280;27061;41.648;24.568;2022-10-16T05:22:48;86511.59;;;7.04;65.05
41312;BME280;27061;41.648;24.568;2022-10-16T05:25:16;86511.63;;;7.06;65.11
41312;BME280;27061;41.648;24.568;2022-10-16T05:27:43;86516.47;;;7.08;65.61
41312;BME280;27061;41.648;24.568;2022-10-16T05:30:10;86499.19;;;7.01;65.68
41312;BME280;27061;41.648;24.568;2022-10-16T05:32:38;86524.09;;;7.15;65.52
41312;BME280;27061;41.648;24.568;2022-10-16T05:35:05;86485.31;;;6.91;65.88
41312;BME280;27061;41.648;24.568;2022-10-16T05:37:38;86520.00;;;7.16;66.22
41312;BME280;27061;41.648;24.568;2022-10-16T05:40:05;86510.91;;;7.04;67.20
41312;BME280;27061;41.648;24.568;2022-10-16T05:42:32;86490.91;;;6.97;67.25
41312;BME280;27061;41.648;24.568;2022-10-16T05:44:59;86503.41;;;7.08;67.35
41312;BME280;27061;41.648;24.568;2022-10-16T05:47:27;86513.09;;;7.15;67.17
41312;BME280;27061;41.648;24.568;2022-10-16T05:49:55;86505.47;;;7.12;67.10
41312;BME280;27061;41.648;24.568;2022-10-16T05:52:22;86490.94;;;7.03;66.34
41312;BME280;27061;41.648;24.568;2022-10-16T05:54:49;86488.25;;;7.07;66.10
41312;BME280;27061;41.648;24.568;2022-10-16T05:57:17;86545.75;;;7.47;66.06
41312;BME280;27061;41.648;24.568;2022-10-16T05:59:44;86527.78;;;7.40;66.27
41312;BME280;27061;41.648;24.568;2022-10-16T06:02:14;86521.56;;;7.38;65.72
41312;BME280;27061;41.648;24.568;2022-10-16T06:04:41;86541.03;;;7.60;65.70
41312;BME280;27061;41.648;24.568;2022-10-16T06:07:08;86526.50;;;7.53;65.67
41312;BME280;27061;41.648;24.568;2022-10-16T06:09:35;86534.91;;;7.69;65.49
41312;BME280;27061;41.648;24.568;2022-10-16T06:12:02;86539.72;;;7.67;65.52
41312;BME280;27061;41.648;24.568;2022-10-16T06:14:29;86541.13;;;7.74;65.16
41312;BME280;27061;41.648;24.568;2022-10-16T06:16:56;86549.41;;;7.70;65.22
41312;BME280;27061;41.648;24.568;2022-10-16T06:19:23;86546.66;;;7.72;65.26
41312;BME280;27061;41.648;24.568;2022-10-16T06:21:50;86521.59;;;7.42;66.03
41312;BME280;27061;41.648;24.568;2022-10-16T06:24:17;86546.50;;;7.56;65.98
41312;BME280;27061;41.648;24.568;2022-10-16T06:26:44;86548.66;;;7.65;65.77
41312;BME280;27061;41.648;24.568;2022-10-16T06:29:11;86531.38;;;7.57;65.45
41312;BME280;27061;41.648;24.568;2022-10-16T06:31:38;86545.84;;;7.59;65.27
41312;BME280;27061;41.648;24.568;2022-10-16T06:34:09;86536.88;;;7.57;65.56
41312;BME280;27061;41.648;24.568;2022-10-16T06:36:38;86543.88;;;7.70;65.76
41312;BME280;27061;41.648;24.568;2022-10-16T06:39:05;86541.06;;;7.64;65.74
41312;BME280;27061;41.648;24.568;2022-10-16T06:41:35;86549.22;;;7.50;65.23
41312;BME280;27061;41.648;24.568;2022-10-16T06:44:14;86525.72;;;7.43;65.50
41312;BME280;27061;41.648;24.568;2022-10-16T06:46:41;86571.47;;;7.74;65.29
41312;BME280;27061;41.648;24.568;2022-10-16T06:49:09;86527.91;;;7.54;65.20
41312;BME280;27061;41.648;24.568;2022-10-16T06:51:36;86578.53;;;7.97;64.94
41312;BME280;27061;41.648;24.568;2022-10-16T06:54:09;86569.66;;;8.09;63.97
41312;BME280;27061;41.648;24.568;2022-10-16T06:56:36;86575.88;;;8.09;65.13
41312;BME280;27061;41.648;24.568;2022-10-16T06:59:04;86576.63;;;8.18;64.78
41312;BME280;27061;41.648;24.568;2022-10-16T07:01:31;86578.72;;;8.22;64.57
41312;BME280;27061;41.648;24.568;2022-10-16T07:04:00;86545.59;;;8.16;63.50
41312;BME280;27061;41.648;24.568;2022-10-16T07:06:31;86569.88;;;8.33;63.59
41312;BME280;27061;41.648;24.568;2022-10-16T07:09:02;86561.50;;;8.27;63.80
41312;BME280;27061;41.648;24.568;2022-10-16T07:11:30;86584.50;;;8.56;65.68
41312;BME280;27061;41.648;24.568;2022-10-16T07:13:57;86570.69;;;8.54;65.77
41312;BME280;27061;41.648;24.568;2022-10-16T07:16:29;86585.94;;;8.71;66.82
41312;BME280;27061;41.648;24.568;2022-10-16T07:18:59;86577.72;;;8.84;64.44
41312;BME280;27061;41.648;24.568;2022-10-16T07:21:30;86589.50;;;8.94;65.68
41312;BME280;27061;41.648;24.568;2022-10-16T07:23:59;86584.66;;;8.93;61.38
41312;BME280;27061;41.648;24.568;2022-10-16T07:26:27;86593.72;;;9.07;61.39
41312;BME280;27061;41.648;24.568;2022-10-16T07:28:55;86582.69;;;9.17;58.60
41312;BME280;27061;41.648;24.568;2022-10-16T07:31:24;86573.03;;;9.16;60.36
41312;BME280;27061;41.648;24.568;2022-10-16T07:33:51;86590.38;;;9.41;62.43
41312;BME280;27061;41.648;24.568;2022-10-16T07:36:19;86568.25;;;9.39;64.04
41312;BME280;27061;41.648;24.568;2022-10-16T07:38:47;86587.66;;;9.66;63.47
41312;BME280;27061;41.648;24.568;2022-10-16T07:41:17;86571.09;;;9.76;58.58
41312;BME280;27061;41.648;24.568;2022-10-16T07:43:52;86590.47;;;9.92;59.29
41312;BME280;27061;41.648;24.568;2022-10-16T07:46:21;86591.88;;;10.01;60.98
41312;BME280;27061;41.648;24.568;2022-10-16T07:48:49;86580.13;;;10.19;57.96
41312;BME280;27061;41.648;24.568;2022-10-16T07:51:18;86580.84;;;10.23;60.15
41312;BME280;27061;41.648;24.568;2022-10-16T07:53:46;86587.75;;;10.37;62.42
41312;BME280;27061;41.648;24.568;2022-10-16T07:56:14;86576.66;;;10.39;60.50
41312;BME280;27061;41.648;24.568;2022-10-16T07:58:42;86583.56;;;10.62;59.32
41312;BME280;27061;41.648;24.568;2022-10-16T08:01:12;86571.81;;;10.57;61.72
41312;BME280;27061;41.648;24.568;2022-10-16T08:03:47;86589.06;;;10.82;61.29
41312;BME280;27061;41.648;24.568;2022-10-16T08:06:15;86589.06;;;10.90;58.61
41312;BME280;27061;41.648;24.568;2022-10-16T08:08:42;86595.94;;;11.08;59.72
41312;BME280;27061;41.648;24.568;2022-10-16T08:11:09;86598.69;;;11.22;58.62
41312;BME280;27061;41.648;24.568;2022-10-16T08:13:37;86575.81;;;11.17;58.44
41312;BME280;27061;41.648;24.568;2022-10-16T08:16:04;86587.53;;;11.40;53.19
41312;BME280;27061;41.648;24.568;2022-10-16T08:18:36;86561.25;;;11.27;55.52
41312;BME280;27061;41.648;24.568;2022-10-16T08:21:04;86595.06;;;11.60;57.75
41312;BME280;27061;41.648;24.568;2022-10-16T08:23:32;86574.94;;;11.63;57.15
41312;BME280;27061;41.648;24.568;2022-10-16T08:26:05;86608.13;;;11.90;57.98
41312;BME280;27061;41.648;24.568;2022-10-16T08:28:34;86609.44;;;12.03;56.82
41312;BME280;27061;41.648;24.568;2022-10-16T08:31:19;86590.00;;;12.05;54.94
41312;BME280;27061;41.648;24.568;2022-10-16T08:33:47;86605.81;;;12.29;56.71
41312;BME280;27061;41.648;24.568;2022-10-16T08:36:15;86607.09;;;12.42;56.93
41312;BME280;27061;41.648;24.568;2022-10-16T08:38:43;86602.16;;;12.53;56.72
41312;BME280;27061;41.648;24.568;2022-10-16T08:48:59;86593.53;;;12.89;53.08
41312;BME280;27061;41.648;24.568;2022-10-16T08:51:30;86610.03;;;13.07;50.50
41312;BME280;27061;41.648;24.568;2022-10-16T08:54:15;86583.72;;;12.94;53.72
41312;BME280;27061;41.648;24.568;2022-10-16T08:56:46;86611.31;;;13.23;54.09
41312;BME280;27061;41.648;24.568;2022-10-16T08:59:14;86610.50;;;13.32;52.24
41312;BME280;27061;41.648;24.568;2022-10-16T09:01:47;86571.09;;;13.09;49.29
41312;BME280;27061;41.648;24.568;2022-10-16T09:10:46;86622.00;;;13.63;52.49
41312;BME280;27061;41.648;24.568;2022-10-16T09:21:21;86593.97;;;13.79;46.79
41312;BME280;27061;41.648;24.568;2022-10-16T09:23:51;86618.75;;;14.02;48.79
41312;BME280;27061;41.648;24.568;2022-10-16T09:26:18;86585.56;;;13.85;49.12
41312;BME280;27061;41.648;24.568;2022-10-16T09:28:52;86599.81;;;14.12;45.75
41312;BME280;27061;41.648;24.568;2022-10-16T09:31:21;86616.91;;;14.35;44.81
41312;BME280;27061;41.648;24.568;2022-10-16T09:33:57;86622.47;;;14.39;48.08
41312;BME280;27061;41.648;24.568;2022-10-16T09:36:27;86598.91;;;14.30;49.47
41312;BME280;27061;41.648;24.568;2022-10-16T09:39:06;86583.63;;;14.25;45.33
41312;BME280;27061;41.648;24.568;2022-10-16T09:41:38;86589.03;;;14.37;45.39
41312;BME280;27061;41.648;24.568;2022-10-16T09:46:46;86599.94;;;14.55;43.45
41312;BME280;27061;41.648;24.568;2022-10-16T09:49:24;86613.59;;;14.74;45.27
41312;BME280;27061;41.648;24.568;2022-10-16T09:52:11;86611.38;;;14.82;47.00
41312;BME280;27061;41.648;24.568;2022-10-16T09:54:49;86622.97;;;14.99;46.54
41312;BME280;27061;41.648;24.568;2022-10-16T09:57:17;86624.94;;;15.05;44.98
41312;BME280;27061;41.648;24.568;2022-10-16T09:59:51;86620.66;;;15.14;45.30
41312;BME280;27061;41.648;24.568;2022-10-16T10:02:39;86564.72;;;14.81;44.77
41312;BME280;27061;41.648;24.568;2022-10-16T10:05:17;86615.44;;;15.32;44.58
41312;BME280;27061;41.648;24.568;2022-10-16T10:07:44;86588.44;;;15.21;42.17
41312;BME280;27061;41.648;24.568;2022-10-16T10:10:33;86617.31;;;15.46;41.99
41312;BME280;27061;41.648;24.568;2022-10-16T10:13:01;86598.50;;;15.45;42.38
41312;BME280;27061;41.648;24.568;2022-10-16T10:15:33;86492.84;;;14.85;41.56
41312;BME280;27061;41.648;24.568;2022-10-16T10:18:01;86594.66;;;15.64;41.78
41312;BME280;27061;41.648;24.568;2022-10-16T10:20:32;86604.91;;;15.76;40.93
41312;BME280;27061;41.648;24.568;2022-10-16T10:23:13;86584.78;;;15.69;41.19
41312;BME280;27061;41.648;24.568;2022-10-16T10:28:55;86599.09;;;15.88;42.22
41312;BME280;27061;41.648;24.568;2022-10-16T10:36:59;86604.28;;;16.08;40.41
41312;BME280;27061;41.648;24.568;2022-10-16T10:39:46;86610.28;;;16.21;38.86
41312;BME280;27061;41.648;24.568;2022-10-16T10:42:42;86595.78;;;16.15;39.01
41312;BME280;27061;41.648;24.568;2022-10-16T10:53:37;86608.78;;;16.28;39.61
41312;BME280;27061;41.648;24.568;2022-10-16T10:59:01;86610.75;;;16.34;38.56
41312;BME280;27061;41.648;24.568;2022-10-16T11:07:14;86600.88;;;16.39;35.34
41312;BME280;27061;41.648;24.568;2022-10-16T11:09:44;86596.56;;;16.44;32.73
41312;BME280;27061;41.648;24.568;2022-10-16T11:12:31;86575.28;;;16.26;35.19
41312;BME280;27061;41.648;24.568;2022-10-16T11:15:11;86570.59;;;16.17;38.57
41312;BME280;27061;41.648;24.568;2022-10-16T11:18:00;86591.16;;;16.36;38.37
41312;BME280;27061;41.648;24.568;2022-10-16T11:20:39;86591.09;;;16.38;35.19
41312;BME280;27061;41.648;24.568;2022-10-16T11:23:23;86595.28;;;16.39;33.33
41312;BME280;27061;41.648;24.568;2022-10-16T11:25:54;86568.34;;;16.23;35.68
41312;BME280;27061;41.648;24.568;2022-10-16T11:31:02;86602.84;;;16.44;37.92
41312;BME280;27061;41.648;24.568;2022-10-16T11:33:42;86592.69;;;16.29;34.45
41312;BME280;27061;41.648;24.568;2022-10-16T11:36:25;86598.94;;;15.96;32.92
41312;BME280;27061;41.648;24.568;2022-10-16T11:39:28;86580.75;;;15.99;33.00
41312;BME280;27061;41.648;24.568;2022-10-16T11:42:21;86595.75;;;16.17;36.55
41312;BME280;27061;41.648;24.568;2022-10-16T11:44:57;86599.88;;;16.20;37.12
41312;BME280;27061;41.648;24.568;2022-10-16T11:47:53;86563.88;;;16.03;38.32
41312;BME280;27061;41.648;24.568;2022-10-16T11:50:37;86589.81;;;16.33;38.61
41312;BME280;27061;41.648;24.568;2022-10-16T11:55:56;86588.50;;;16.30;39.74
41312;BME280;27061;41.648;24.568;2022-10-16T11:58:33;86597.59;;;16.61;35.43
41312;BME280;27061;41.648;24.568;2022-10-16T12:01:33;86597.44;;;16.69;35.57
41312;BME280;27061;41.648;24.568;2022-10-16T12:04:09;86600.28;;;16.67;36.08
41312;BME280;27061;41.648;24.568;2022-10-16T12:09:30;86604.25;;;16.76;37.80
41312;BME280;27061;41.648;24.568;2022-10-16T12:11:58;86587.03;;;16.66;39.52
41312;BME280;27061;41.648;24.568;2022-10-16T12:16:58;86576.63;;;16.62;39.80
41312;BME280;27061;41.648;24.568;2022-10-16T12:19:28;86577.63;;;16.79;34.87
41312;BME280;27061;41.648;24.568;2022-10-16T12:21:58;86568.72;;;16.73;36.78
41312;BME280;27061;41.648;24.568;2022-10-16T12:26:59;86596.78;;;16.98;39.35
41312;BME280;27061;41.648;24.568;2022-10-16T12:32:04;86603.47;;;17.11;37.97
41312;BME280;27061;41.648;24.568;2022-10-16T12:34:44;86609.66;;;17.15;36.66
41312;BME280;27061;41.648;24.568;2022-10-16T12:37:18;86577.84;;;17.00;38.17
41312;BME280;27061;41.648;24.568;2022-10-16T12:39:48;86590.91;;;17.10;38.49
41312;BME280;27061;41.648;24.568;2022-10-16T12:44:55;86620.75;;;17.48;34.95
41312;BME280;27061;41.648;24.568;2022-10-16T12:49:59;86628.22;;;17.58;37.13
41312;BME280;27061;41.648;24.568;2022-10-16T12:52:38;86573.72;;;17.26;35.54
41312;BME280;27061;41.648;24.568;2022-10-16T12:55:15;86620.56;;;17.56;37.47
41312;BME280;27061;41.648;24.568;2022-10-16T13:00:47;86595.53;;;17.48;38.35
41312;BME280;27061;41.648;24.568;2022-10-16T13:03:54;86634.03;;;17.79;36.90
41312;BME280;27061;41.648;24.568;2022-10-16T13:06:58;86618.56;;;17.80;38.00
41312;BME280;27061;41.648;24.568;2022-10-16T13:17:45;86636.34;;;17.97;36.32
41312;BME280;27061;41.648;24.568;2022-10-16T13:20:40;86636.28;;;17.99;37.66
41312;BME280;27061;41.648;24.568;2022-10-16T13:23:38;86636.19;;;18.03;38.59
41312;BME280;27061;41.648;24.568;2022-10-16T13:29:06;86638.25;;;18.05;34.86
41312;BME280;27061;41.648;24.568;2022-10-16T13:31:33;86624.88;;;18.07;36.12
41312;BME280;27061;41.648;24.568;2022-10-16T13:34:01;86615.31;;;17.98;36.50
41312;BME280;27061;41.648;24.568;2022-10-16T13:36:30;86606.97;;;17.96;37.39
41312;BME280;27061;41.648;24.568;2022-10-16T13:39:11;86633.22;;;18.09;36.99
41312;BME280;27061;41.648;24.568;2022-10-16T13:41:39;86629.16;;;18.04;37.24
41312;BME280;27061;41.648;24.568;2022-10-16T13:44:15;86609.72;;;17.98;37.97
41312;BME280;27061;41.648;24.568;2022-10-16T13:46:44;86642.78;;;18.18;37.52
41312;BME280;27061;41.648;24.568;2022-10-16T13:49:16;86631.81;;;18.10;37.33
41312;BME280;27061;41.648;24.568;2022-10-16T13:51:56;86651.84;;;18.21;36.73
41312;BME280;27061;41.648;24.568;2022-10-16T13:54:25;86652.63;;;18.17;37.12
41312;BME280;27061;41.648;24.568;2022-10-16T13:56:53;86627.41;;;17.90;37.17
41312;BME280;27061;41.648;24.568;2022-10-16T13:59:36;86645.53;;;17.93;37.28
41312;BME280;27061;41.648;24.568;2022-10-16T14:02:28;86662.88;;;18.00;37.66
41312;BME280;27061;41.648;24.568;2022-10-16T14:04:57;86652.09;;;17.84;37.74
41312;BME280;27061;41.648;24.568;2022-10-16T14:07:27;86665.34;;;17.85;38.07
41312;BME280;27061;41.648;24.568;2022-10-16T14:09:55;86671.34;;;17.69;39.18
41312;BME280;27061;41.648;24.568;2022-10-16T14:12:27;86676.59;;;17.54;40.04
41312;BME280;27061;41.648;24.568;2022-10-16T14:14:55;86656.16;;;17.31;39.76
41312;BME280;27061;41.648;24.568;2022-10-16T14:17:31;86676.44;;;17.32;39.96
41312;BME280;27061;41.648;24.568;2022-10-16T14:20:03;86666.91;;;17.20;40.32
41312;BME280;27061;41.648;24.568;2022-10-16T14:22:39;86679.47;;;17.22;40.89
41312;BME280;27061;41.648;24.568;2022-10-16T14:28:03;86669.75;;;16.86;42.17
41312;BME280;27061;41.648;24.568;2022-10-16T14:30:33;86661.66;;;16.73;42.12
41312;BME280;27061;41.648;24.568;2022-10-16T14:33:02;86678.28;;;16.79;42.42
41312;BME280;27061;41.648;24.568;2022-10-16T14:35:36;86638.59;;;16.38;42.41
41312;BME280;27061;41.648;24.568;2022-10-16T14:38:05;86687.59;;;16.70;41.79
41312;BME280;27061;41.648;24.568;2022-10-16T14:40:35;86684.19;;;16.65;42.00
41312;BME280;27061;41.648;24.568;2022-10-16T14:43:05;86667.78;;;16.45;42.01
41312;BME280;27061;41.648;24.568;2022-10-16T14:45:34;86669.44;;;16.32;40.42
41312;BME280;27061;41.648;24.568;2022-10-16T14:48:05;86668.78;;;16.31;41.53
41312;BME280;27061;41.648;24.568;2022-10-16T14:50:45;86654.63;;;16.04;40.95
41312;BME280;27061;41.648;24.568;2022-10-16T14:53:12;86662.44;;;15.98;42.04
41312;BME280;27061;41.648;24.568;2022-10-16T14:55:41;86699.19;;;16.10;41.99
41312;BME280;27061;41.648;24.568;2022-10-16T14:58:21;86693.88;;;15.96;40.93
41312;BME280;27061;41.648;24.568;2022-10-16T15:00:49;86688.59;;;15.80;41.62
41312;BME280;27061;41.648;24.568;2022-10-16T15:03:16;86694.31;;;15.72;41.94